Time;durP1;ratioP1;P1;durP2;ratioP2;P2;SDS_P1;SDS_P2;PMS_P1;PMS_P2;Temp;Humidity;BMP_temperature;BMP_pressure;BME280_temperature;BME280_humidity;BME280_pressure;Samples;Min_cycle;Max_cycle;Signal;HPM_P1;HPM_P2
2022/12/12 00:00:50;;;;;;;23.88;13.38;;;0.90;99.90;;;;;;5130157;27;20047;-65
2022/12/12 00:03:16;;;;;;;19.55;12.60;;;0.90;99.90;;;;;;5129760;27;20071;-65
2022/12/12 00:05:42;;;;;;;21.90;13.13;;;1.00;99.90;;;;;;5095260;28;20101;-66
2022/12/12 00:08:08;;;;;;;23.92;12.95;;;0.90;99.90;;;;;;5095561;28;20130;-65
2022/12/12 00:10:34;;;;;;;20.90;12.85;;;1.00;99.90;;;;;;5095570;28;20051;-66
2022/12/12 00:13:01;;;;;;;21.67;13.35;;;1.00;99.90;;;;;;5095507;28;20048;-65
2022/12/12 00:15:26;;;;;;;21.75;13.02;;;1.00;99.90;;;;;;5094048;28;20043;-65
2022/12/12 00:17:52;;;;;;;20.92;14.35;;;1.00;99.90;;;;;;5085244;28;20039;-65
2022/12/12 00:20:18;;;;;;;21.98;13.13;;;0.90;99.90;;;;;;5095468;28;20498;-64
2022/12/12 00:22:44;;;;;;;20.48;12.45;;;0.90;99.90;;;;;;5095049;28;20115;-66
2022/12/12 00:25:10;;;;;;;22.08;13.25;;;0.90;99.90;;;;;;5095503;28;20039;-65
2022/12/12 00:27:36;;;;;;;22.38;13.43;;;0.90;99.90;;;;;;5129576;27;20042;-65
2022/12/12 00:30:02;;;;;;;21.52;13.13;;;0.90;99.90;;;;;;5095129;28;20043;-65
2022/12/12 00:32:29;;;;;;;22.33;13.68;;;0.90;99.90;;;;;;5094890;28;20036;-66
2022/12/12 00:34:55;;;;;;;20.70;12.90;;;0.90;99.90;;;;;;5094861;28;20035;-66
2022/12/12 00:37:20;;;;;;;20.10;12.57;;;0.90;99.90;;;;;;5095104;28;20043;-65
2022/12/12 00:39:46;;;;;;;18.85;12.45;;;0.90;99.90;;;;;;5095253;28;20439;-65
2022/12/12 00:42:12;;;;;;;21.80;13.20;;;0.90;99.90;;;;;;5094912;28;20039;-66
2022/12/12 00:44:38;;;;;;;23.70;12.95;;;0.90;99.90;;;;;;5094934;28;20050;-65
2022/12/12 00:47:04;;;;;;;23.83;13.38;;;0.80;99.90;;;;;;5129236;27;20504;-65
2022/12/12 00:49:30;;;;;;;20.45;12.27;;;0.90;99.90;;;;;;5094945;28;20047;-65
2022/12/12 00:51:55;;;;;;;22.38;13.13;;;0.80;99.90;;;;;;5095077;28;20035;-65
2022/12/12 00:54:22;;;;;;;21.95;12.73;;;0.80;99.90;;;;;;5095149;28;20039;-65
2022/12/12 00:56:48;;;;;;;20.00;12.98;;;0.80;99.90;;;;;;5077252;28;20051;-65
2022/12/12 00:59:13;;;;;;;20.15;12.82;;;0.80;99.90;;;;;;5094717;28;20046;-65
2022/12/12 01:01:39;;;;;;;20.33;12.32;;;0.80;99.90;;;;;;5094035;28;20043;-65
2022/12/12 01:04:06;;;;;;;21.58;12.30;;;0.80;99.90;;;;;;5094396;28;20055;-66
2022/12/12 01:06:31;;;;;;;22.20;12.77;;;0.80;99.90;;;;;;5112640;28;20147;-65
2022/12/12 01:08:58;;;;;;;20.42;11.80;;;0.80;99.90;;;;;;5094085;28;20097;-65
2022/12/12 01:11:24;;;;;;;21.33;12.73;;;0.80;99.90;;;;;;5128738;27;20336;-65
2022/12/12 01:13:51;;;;;;;22.58;13.05;;;0.80;99.90;;;;;;5094118;28;20044;-64
2022/12/12 01:16:17;;;;;;;19.95;12.50;;;0.80;99.90;;;;;;5128379;27;20047;-65
2022/12/12 01:18:43;;;;;;;19.90;12.57;;;0.80;99.90;;;;;;5093919;28;20399;-65
2022/12/12 01:21:10;;;;;;;19.75;12.45;;;0.80;99.90;;;;;;5094137;28;20031;-66
2022/12/12 01:23:37;;;;;;;22.48;13.55;;;0.80;99.90;;;;;;5094566;28;20478;-65
2022/12/12 01:26:06;;;;;;;20.75;12.63;;;0.80;99.90;;;;;;5093459;28;20100;-65
2022/12/12 01:28:32;;;;;;;23.52;13.52;;;0.80;99.90;;;;;;5128334;27;20538;-66
2022/12/12 01:30:57;;;;;;;20.38;12.93;;;0.80;99.90;;;;;;5093895;28;20047;-66
2022/12/12 01:33:23;;;;;;;19.95;12.48;;;0.80;99.90;;;;;;5093838;28;20500;-64
2022/12/12 01:35:49;;;;;;;20.50;12.35;;;0.80;99.90;;;;;;5094210;28;20043;-65
2022/12/12 01:38:14;;;;;;;21.02;12.52;;;0.80;99.90;;;;;;5093798;28;20043;-66
2022/12/12 01:40:40;;;;;;;20.45;12.82;;;0.80;99.90;;;;;;5094023;28;20122;-65
2022/12/12 01:43:12;;;;;;;20.23;11.93;;;0.70;99.90;;;;;;5093908;28;20031;-66
2022/12/12 01:46:01;;;;;;;19.52;12.27;;;0.70;99.90;;;;;;5128018;27;20027;-65
2022/12/12 01:48:44;;;;;;;18.95;12.23;;;0.80;99.90;;;;;;5127562;27;20043;-65
2022/12/12 01:51:11;;;;;;;;;;;0.80;99.90;;;;;;5094187;28;20035;-65
2022/12/12 01:53:37;;;;;;;17.70;11.57;;;0.80;99.90;;;;;;5094131;28;19965;-65
2022/12/12 01:56:08;;;;;;;20.88;12.45;;;0.80;99.90;;;;;;5093059;28;20043;-66
2022/12/12 01:58:33;;;;;;;20.60;12.50;;;0.80;99.90;;;;;;5127348;27;20119;-65
2022/12/12 02:01:00;;;;;;;19.90;12.57;;;0.90;99.90;;;;;;5093658;28;20106;-65
2022/12/12 02:03:26;;;;;;;20.70;12.55;;;0.90;99.90;;;;;;5111699;28;20035;-66
2022/12/12 02:05:59;;;;;;;19.67;12.10;;;0.90;99.90;;;;;;5101952;28;20060;-65
2022/12/12 02:08:25;;;;;;;21.38;12.65;;;0.90;99.90;;;;;;5126214;27;20043;-65
2022/12/12 02:10:50;;;;;;;19.63;12.55;;;0.90;99.90;;;;;;5111846;28;20038;-64
2022/12/12 02:13:22;;;;;;;18.88;12.00;;;0.90;99.90;;;;;;5093450;28;20031;-65
2022/12/12 02:16:13;;;;;;;19.65;12.27;;;1.00;99.90;;;;;;5127669;27;20494;-65
2022/12/12 02:18:55;;;;;;;19.55;12.52;;;1.00;99.90;;;;;;5122296;27;20548;-64
2022/12/12 02:21:43;;;;;;;22.58;12.23;;;1.00;99.90;;;;;;5093111;28;20031;-65
2022/12/12 02:24:44;;;;;;;19.58;11.93;;;1.00;99.90;;;;;;5092981;28;20055;-66
2022/12/12 02:27:43;;;;;;;19.77;12.20;;;1.10;99.90;;;;;;5012053;28;20064;-66
2022/12/12 02:30:19;;;;;;;21.05;12.32;;;1.10;99.90;;;;;;5011977;28;20452;-65
2022/12/12 02:33:02;;;;;;;20.42;12.50;;;1.10;99.90;;;;;;5012244;28;20048;-65
2022/12/12 02:35:55;;;;;;;22.92;12.80;;;1.10;99.90;;;;;;5012139;28;20115;-65
2022/12/12 02:38:26;;;;;;;;;;;1.10;99.90;;;;;;5012978;28;20049;-65
2022/12/12 02:41:00;;;;;;;19.50;11.75;;;1.10;99.90;;;;;;5016177;28;19925;-65
2022/12/12 02:43:38;;;;;;;20.73;12.35;;;1.10;99.90;;;;;;5049341;28;20053;-66
2022/12/12 02:46:21;;;;;;;19.05;11.80;;;1.10;99.90;;;;;;5015931;28;20044;-66
2022/12/12 02:48:57;;;;;;;22.05;13.00;;;1.10;99.90;;;;;;5049328;28;20037;-65
2022/12/12 02:51:24;;;;;;;20.27;12.20;;;1.20;99.90;;;;;;5029815;28;20175;-65
2022/12/12 02:53:50;;;;;;;19.38;12.25;;;1.20;99.90;;;;;;5032603;28;20091;-66
2022/12/12 02:56:46;;;;;;;23.00;13.20;;;1.20;99.90;;;;;;5015846;28;20128;-65
2022/12/12 02:59:34;;;;;;;20.42;12.43;;;1.20;99.90;;;;;;5016127;28;20496;-65
2022/12/12 03:02:30;;;;;;;24.05;13.52;;;1.20;99.90;;;;;;5030293;28;20119;-65
2022/12/12 03:07:57;;;;;;;21.08;12.90;;;1.20;99.90;;;;;;5096737;28;20122;-65
2022/12/12 03:10:41;;;;;;;20.52;13.05;;;1.20;99.90;;;;;;5096428;28;20131;-65
2022/12/12 03:13:29;;;;;;;19.70;11.77;;;1.20;99.90;;;;;;5096428;28;20588;-65
2022/12/12 03:16:18;;;;;;;20.75;11.80;;;1.10;99.90;;;;;;5096797;28;20054;-66
2022/12/12 03:18:57;;;;;;;18.55;11.57;;;1.10;99.90;;;;;;5095894;28;20757;-63
2022/12/12 03:21:42;;;;;;;20.67;12.43;;;1.10;99.90;;;;;;5096479;28;20043;-64
2022/12/12 03:24:37;;;;;;;20.30;12.68;;;1.10;99.90;;;;;;5096197;28;20043;-64
2022/12/12 03:27:06;;;;;;;19.90;12.00;;;1.20;99.90;;;;;;5111078;28;20048;-64
2022/12/12 03:29:42;;;;;;;20.27;12.77;;;1.10;99.90;;;;;;5096268;28;20043;-64
2022/12/12 03:32:14;;;;;;;21.73;12.75;;;1.20;99.90;;;;;;5096191;28;20040;-64
2022/12/12 03:34:48;;;;;;;20.30;12.25;;;1.10;99.90;;;;;;5096250;28;20042;-64
2022/12/12 03:37:25;;;;;;;18.10;11.95;;;1.10;99.90;;;;;;5096150;28;20039;-63
2022/12/12 03:39:56;;;;;;;19.73;12.05;;;1.20;99.90;;;;;;5096113;28;20038;-63
2022/12/12 03:42:48;;;;;;;21.08;12.88;;;1.20;99.90;;;;;;5112954;28;20111;-63
2022/12/12 03:45:25;;;;;;;19.63;12.18;;;1.20;99.90;;;;;;5114556;28;20465;-64
2022/12/12 03:48:12;;;;;;;17.70;11.60;;;1.20;99.90;;;;;;5096049;28;20042;-64
2022/12/12 03:50:44;;;;;;;19.48;12.13;;;1.20;99.90;;;;;;5127638;27;20147;-64
2022/12/12 03:53:12;;;;;;;20.70;12.97;;;1.20;99.90;;;;;;5123832;27;20163;-64
2022/12/12 03:55:58;;;;;;;18.92;12.07;;;1.20;99.90;;;;;;5095506;28;20452;-64
2022/12/12 03:58:32;;;;;;;21.60;12.73;;;1.20;99.90;;;;;;5094745;28;20054;-64
2022/12/12 04:00:59;;;;;;;19.08;12.32;;;1.20;99.90;;;;;;5129867;27;20035;-64
2022/12/12 04:03:43;;;;;;;19.13;12.43;;;1.10;99.90;;;;;;5129726;27;20115;-64
2022/12/12 04:06:36;;;;;;;19.98;11.60;;;1.10;99.90;;;;;;5095378;28;20076;-64
2022/12/12 04:14:44;;;;;;;19.35;12.30;;;1.10;99.90;;;;;;5095219;28;20032;-64
2022/12/12 04:17:14;;;;;;;20.42;12.20;;;1.20;99.90;;;;;;5078619;28;20126;-63
2022/12/12 04:29:22;;;;;;;21.20;11.73;;;1.30;99.90;;;;;;5095168;28;20097;-64
2022/12/12 04:31:57;;;;;;;18.65;11.85;;;1.30;99.90;;;;;;5095198;28;20051;-63
2022/12/12 04:34:50;;;;;;;20.38;12.48;;;1.20;99.90;;;;;;5078152;28;20059;-64
2022/12/12 04:37:21;;;;;;;18.63;11.93;;;1.20;99.90;;;;;;5095090;28;20086;-64
2022/12/12 04:39:49;;;;;;;19.23;12.27;;;1.30;99.90;;;;;;5094801;28;20036;-64
2022/12/12 04:42:20;;;;;;;18.38;12.30;;;1.20;99.90;;;;;;5095212;28;20486;-63
2022/12/12 04:44:47;;;;;;;18.05;11.68;;;1.30;99.90;;;;;;5128881;27;20032;-62
2022/12/12 04:47:14;;;;;;;18.67;11.98;;;1.30;99.90;;;;;;5128924;27;20035;-64
2022/12/12 04:49:45;;;;;;;20.02;11.75;;;1.30;99.90;;;;;;5128733;27;20043;-64
2022/12/12 04:52:12;;;;;;;18.13;11.88;;;1.30;99.90;;;;;;5094803;28;20114;-64
2022/12/12 04:54:52;;;;;;;18.17;12.43;;;1.30;99.90;;;;;;5094905;28;20055;-64
2022/12/12 04:57:31;;;;;;;18.77;11.55;;;1.30;99.90;;;;;;5094479;28;20061;-64
2022/12/12 04:59:56;;;;;;;17.92;11.75;;;1.30;99.90;;;;;;5112605;28;20040;-64
2022/12/12 05:02:25;;;;;;;20.23;12.40;;;1.40;99.90;;;;;;5093859;28;20122;-63
2022/12/12 05:05:09;;;;;;;20.23;12.55;;;1.40;99.90;;;;;;5094578;28;20036;-64
2022/12/12 05:07:40;;;;;;;18.67;11.63;;;1.30;99.90;;;;;;5128463;27;20048;-64
2022/12/12 05:10:13;;;;;;;18.90;12.27;;;1.30;99.90;;;;;;5094280;28;20035;-64
2022/12/12 05:12:44;;;;;;;19.35;12.32;;;1.30;99.90;;;;;;5128537;27;20513;-64
2022/12/12 05:15:11;;;;;;;19.85;12.65;;;1.20;99.90;;;;;;5128604;27;20044;-64
2022/12/12 05:17:49;;;;;;;20.30;13.35;;;1.20;99.90;;;;;;5094127;28;20048;-64
2022/12/12 05:20:15;;;;;;;18.63;12.50;;;1.30;99.90;;;;;;5094240;28;20039;-64
2022/12/12 05:22:41;;;;;;;19.58;11.77;;;1.30;99.90;;;;;;5094022;28;20049;-64
2022/12/12 05:25:07;;;;;;;19.98;12.90;;;1.30;99.90;;;;;;5094124;28;20035;-64
2022/12/12 05:27:33;;;;;;;19.50;12.00;;;1.30;99.90;;;;;;5093992;28;20067;-63
2022/12/12 05:29:59;;;;;;;20.13;12.15;;;1.30;99.90;;;;;;5093915;28;20450;-64
2022/12/12 05:32:25;;;;;;;21.10;13.23;;;1.30;99.90;;;;;;5094125;28;20043;-64
2022/12/12 05:34:50;;;;;;;20.33;12.63;;;1.20;99.90;;;;;;5094186;28;20054;-64
2022/12/12 05:37:16;;;;;;;18.38;11.93;;;1.20;99.90;;;;;;5093656;28;20043;-64
2022/12/12 05:39:42;;;;;;;19.85;13.10;;;1.20;99.90;;;;;;5093615;28;20040;-64
2022/12/12 05:42:07;;;;;;;20.75;12.85;;;1.20;99.90;;;;;;5083980;28;20127;-64
2022/12/12 05:44:33;;;;;;;20.05;12.68;;;1.20;99.90;;;;;;5092302;28;20067;-64
2022/12/12 05:46:58;;;;;;;18.17;12.38;;;1.20;99.90;;;;;;5093719;28;20160;-64
2022/12/12 05:49:24;;;;;;;19.25;11.43;;;1.10;99.90;;;;;;5112086;28;20035;-64
2022/12/12 05:51:49;;;;;;;20.02;12.45;;;1.10;99.90;;;;;;5093286;28;20036;-64
2022/12/12 05:54:15;;;;;;;17.25;11.45;;;1.00;99.90;;;;;;5093641;28;20062;-64
2022/12/12 05:56:41;;;;;;;21.08;12.10;;;1.00;99.90;;;;;;5093515;28;20451;-64
2022/12/12 05:59:07;;;;;;;18.70;12.60;;;1.00;99.90;;;;;;5093253;28;20122;-64
2022/12/12 06:01:32;;;;;;;21.02;12.40;;;1.00;99.90;;;;;;5076344;28;20494;-64
2022/12/12 06:03:58;;;;;;;19.13;12.63;;;1.00;99.90;;;;;;5093183;28;21721;-63
2022/12/12 06:06:24;;;;;;;20.02;12.18;;;1.00;99.90;;;;;;5087814;28;20052;-63
2022/12/12 06:08:50;;;;;;;23.30;12.90;;;1.00;99.90;;;;;;5092998;28;20046;-63
2022/12/12 06:11:16;;;;;;;18.38;12.00;;;1.00;99.90;;;;;;5127557;27;20036;-64
2022/12/12 06:13:42;;;;;;;19.20;12.20;;;1.00;99.90;;;;;;5111516;28;20536;-64
2022/12/12 06:16:09;;;;;;;20.20;12.50;;;1.00;99.90;;;;;;5111375;28;20071;-64
2022/12/12 06:18:36;;;;;;;21.38;12.82;;;1.00;99.90;;;;;;5093119;28;20043;-64
2022/12/12 06:21:07;;;;;;;18.90;12.73;;;1.00;99.90;;;;;;5092922;28;20120;-64
2022/12/12 06:23:37;;;;;;;19.02;12.07;;;1.00;99.90;;;;;;5093199;28;20068;-64
2022/12/12 06:26:04;;;;;;;19.45;12.00;;;1.00;99.90;;;;;;5127100;27;20106;-63
2022/12/12 06:28:30;;;;;;;20.10;12.82;;;1.00;99.90;;;;;;5093354;28;20118;-63
2022/12/12 06:30:56;;;;;;;20.13;12.45;;;1.00;99.90;;;;;;5109602;28;20080;-65
2022/12/12 06:33:21;;;;;;;19.63;12.70;;;1.00;99.90;;;;;;5093069;28;20051;-63
2022/12/12 06:36:12;;;;;;;21.48;13.77;;;1.00;99.90;;;;;;5075873;28;20058;-66
2022/12/12 06:38:39;;;;;;;20.80;13.48;;;1.00;99.90;;;;;;5011948;28;20416;-62
2022/12/12 06:41:14;;;;;;;21.08;13.15;;;1.00;99.90;;;;;;5011859;28;20103;-63
2022/12/12 06:43:41;;;;;;;19.25;12.27;;;1.00;99.90;;;;;;5011895;28;20042;-64
2022/12/12 06:46:11;;;;;;;21.08;12.95;;;1.00;99.90;;;;;;5028349;28;20041;-64
2022/12/12 06:48:36;;;;;;;18.83;12.60;;;1.00;99.90;;;;;;5011836;28;20053;-64
2022/12/12 06:51:07;;;;;;;18.15;12.27;;;1.00;99.90;;;;;;4995870;28;20400;-63
2022/12/12 06:53:33;;;;;;;19.13;12.43;;;1.00;99.90;;;;;;5009333;28;20518;-64
2022/12/12 06:55:58;;;;;;;17.77;11.48;;;1.00;99.90;;;;;;5012029;28;20049;-64
2022/12/12 06:58:24;;;;;;;19.92;11.80;;;1.00;99.90;;;;;;5001462;28;20046;-64
2022/12/12 07:00:51;;;;;;;18.70;11.75;;;1.00;99.90;;;;;;4997318;28;20124;-63
2022/12/12 07:03:17;;;;;;;20.30;12.13;;;1.00;99.90;;;;;;5011927;28;20607;-64
2022/12/12 07:05:44;;;;;;;19.02;11.93;;;1.00;99.90;;;;;;5011867;28;20053;-64
2022/12/12 07:08:10;;;;;;;19.67;12.35;;;1.00;99.90;;;;;;5028086;28;20046;-66
2022/12/12 07:10:35;;;;;;;21.73;12.65;;;1.00;99.90;;;;;;4997927;28;20056;-63
2022/12/12 07:13:01;;;;;;;19.38;12.32;;;1.00;99.90;;;;;;5009207;28;20045;-64
2022/12/12 07:15:27;;;;;;;19.33;12.13;;;1.00;99.90;;;;;;5043690;28;20060;-64
2022/12/12 07:17:53;;;;;;;17.90;11.73;;;1.00;99.90;;;;;;5092559;28;20043;-64
2022/12/12 07:20:19;;;;;;;20.52;12.48;;;0.90;99.90;;;;;;5092334;28;20101;-64
2022/12/12 07:22:45;;;;;;;21.95;11.57;;;0.90;99.90;;;;;;5093011;28;20497;-64
2022/12/12 07:25:11;;;;;;;19.80;12.30;;;0.90;99.90;;;;;;5094481;28;20429;-63
2022/12/12 07:27:36;;;;;;;21.05;12.60;;;0.90;99.90;;;;;;5096314;28;20065;-64
2022/12/12 07:30:02;;;;;;;18.13;12.02;;;0.90;99.90;;;;;;5087021;28;20043;-64
2022/12/12 07:32:28;;;;;;;20.33;13.32;;;0.90;99.90;;;;;;5096233;28;20074;-63
2022/12/12 07:34:54;;;;;;;22.23;13.05;;;1.00;99.90;;;;;;5096565;28;20067;-64
2022/12/12 07:37:19;;;;;;;20.50;13.38;;;1.00;99.90;;;;;;5096128;28;20040;-64
2022/12/12 07:39:45;;;;;;;19.88;12.75;;;1.00;99.90;;;;;;5095972;28;20088;-63
2022/12/12 07:42:11;;;;;;;21.75;12.75;;;1.00;99.90;;;;;;5078565;28;20047;-64
2022/12/12 07:44:36;;;;;;;19.88;12.25;;;1.00;99.90;;;;;;5096176;28;20035;-64
2022/12/12 07:47:02;;;;;;;20.27;12.50;;;1.00;99.90;;;;;;5096208;28;20118;-63
2022/12/12 07:49:28;;;;;;;18.52;12.18;;;1.10;99.90;;;;;;5095780;28;20489;-64
2022/12/12 07:51:54;;;;;;;17.55;11.70;;;1.10;99.90;;;;;;5129915;27;20092;-64
2022/12/12 07:54:20;;;;;;;19.67;12.23;;;1.10;99.90;;;;;;5095829;28;20043;-64
2022/12/12 07:56:45;;;;;;;20.40;13.45;;;1.00;99.90;;;;;;5095529;28;20047;-64
2022/12/12 07:59:11;;;;;;;21.42;12.50;;;1.10;99.90;;;;;;5078698;28;20485;-64
2022/12/12 08:01:37;;;;;;;21.20;12.38;;;1.10;99.90;;;;;;5095659;28;20469;-63
2022/12/12 08:04:04;;;;;;;18.80;12.30;;;1.10;99.90;;;;;;5114417;28;20031;-64
2022/12/12 08:06:29;;;;;;;19.45;12.20;;;1.10;99.90;;;;;;5095366;28;20440;-64
2022/12/12 08:08:55;;;;;;;19.90;12.20;;;1.10;99.90;;;;;;5113883;28;20039;-64
2022/12/12 08:11:23;;;;;;;20.65;12.38;;;1.20;99.90;;;;;;5095132;28;20047;-64
2022/12/12 08:13:49;;;;;;;21.05;13.35;;;1.20;99.90;;;;;;5095485;28;20043;-64
2022/12/12 08:16:24;;;;;;;19.10;12.18;;;1.10;99.90;;;;;;5095452;28;20039;-65
2022/12/12 08:18:56;;;;;;;18.88;12.63;;;1.10;99.90;;;;;;5095298;28;20044;-64
2022/12/12 08:21:22;;;;;;;21.83;12.75;;;1.10;99.90;;;;;;5113613;28;20050;-64
2022/12/12 08:23:48;;;;;;;22.48;13.45;;;1.10;99.90;;;;;;5113336;28;20040;-63
2022/12/12 08:26:15;;;;;;;19.67;13.02;;;1.10;99.90;;;;;;5095097;28;20036;-64
2022/12/12 08:28:43;;;;;;;20.40;13.45;;;1.10;99.90;;;;;;5078348;28;20035;-63
2022/12/12 08:31:11;;;;;;;19.65;12.52;;;1.20;99.90;;;;;;5129200;27;20053;-64
2022/12/12 08:33:37;;;;;;;21.63;13.02;;;1.00;99.90;;;;;;5095138;28;20525;-64
2022/12/12 08:36:15;;;;;;;20.70;12.95;;;1.00;99.90;;;;;;5094357;28;20071;-64
2022/12/12 08:38:42;;;;;;;20.77;12.88;;;1.00;99.90;;;;;;5094903;28;20045;-63
2022/12/12 08:41:09;;;;;;;19.42;13.00;;;1.00;99.90;;;;;;5094961;28;20039;-64
2022/12/12 08:43:37;;;;;;;19.25;12.60;;;1.00;99.90;;;;;;5094832;28;20602;-63
2022/12/12 08:46:03;;;;;;;19.45;12.50;;;1.00;99.90;;;;;;5113287;28;20099;-64
2022/12/12 08:48:29;;;;;;;20.77;13.57;;;1.10;99.90;;;;;;5094622;28;20134;-64
2022/12/12 08:50:56;;;;;;;20.98;13.43;;;1.10;99.90;;;;;;5128782;27;20039;-63
2022/12/12 08:53:22;;;;;;;21.17;13.35;;;1.10;99.90;;;;;;5094541;28;20047;-64
2022/12/12 08:55:48;;;;;;;25.48;14.20;;;1.20;99.90;;;;;;5128733;27;20042;-64
2022/12/12 08:58:15;;;;;;;23.38;13.55;;;1.20;99.90;;;;;;5094911;28;20077;-64
2022/12/12 09:00:41;;;;;;;20.77;13.27;;;1.20;99.90;;;;;;5128404;27;20071;-64
2022/12/12 09:03:07;;;;;;;20.90;13.63;;;1.30;99.90;;;;;;5113342;28;20081;-64
2022/12/12 09:05:33;;;;;;;21.63;13.18;;;1.30;99.90;;;;;;5091022;28;20063;-64
2022/12/12 09:07:59;;;;;;;21.50;13.55;;;1.30;99.90;;;;;;5091174;28;20040;-64
2022/12/12 09:10:28;;;;;;;22.58;13.57;;;1.30;99.90;;;;;;5074088;28;20043;-64
2022/12/12 09:12:54;;;;;;;20.08;13.35;;;1.40;99.90;;;;;;5125150;27;20395;-64
2022/12/12 09:15:20;;;;;;;19.75;13.55;;;1.40;99.90;;;;;;5091107;28;20044;-63
2022/12/12 09:17:45;;;;;;;22.17;13.88;;;1.40;99.90;;;;;;5084002;28;20110;-63
2022/12/12 09:20:11;;;;;;;21.80;13.55;;;1.40;99.90;;;;;;5089239;28;20039;-64
2022/12/12 09:22:37;;;;;;;21.48;12.90;;;1.40;99.90;;;;;;5090837;28;20067;-64
2022/12/12 09:25:04;;;;;;;21.85;14.27;;;1.50;99.90;;;;;;5073706;28;20474;-64
2022/12/12 09:27:30;;;;;;;23.42;14.93;;;1.50;99.90;;;;;;5091324;28;20052;-64
2022/12/12 09:29:56;;;;;;;22.15;14.77;;;1.50;99.90;;;;;;5073543;28;20028;-63
2022/12/12 09:32:21;;;;;;;21.15;14.07;;;1.50;99.90;;;;;;5073768;28;20044;-64
2022/12/12 09:34:47;;;;;;;22.88;14.38;;;1.50;99.90;;;;;;5073158;28;20135;-64
2022/12/12 09:37:13;;;;;;;25.20;15.65;;;1.60;99.90;;;;;;5091760;28;20584;-64
2022/12/12 09:39:39;;;;;;;24.20;14.57;;;1.60;99.90;;;;;;5073454;28;20406;-62
2022/12/12 09:42:23;;;;;;;20.10;13.20;;;1.60;99.90;;;;;;5072988;28;20105;-64
2022/12/12 09:44:56;;;;;;;19.67;13.20;;;1.60;99.90;;;;;;5073225;28;20077;-64
2022/12/12 09:47:53;;;;;;;20.45;13.70;;;1.70;99.90;;;;;;5073034;28;20135;-64
2022/12/12 09:50:21;;;;;;;24.48;16.08;;;1.80;99.90;;;;;;5072271;28;20091;-64
2022/12/12 09:52:47;;;;;;;23.33;14.77;;;1.80;99.90;;;;;;5073121;28;20044;-64
2022/12/12 09:55:19;;;;;;;21.92;13.60;;;1.80;99.90;;;;;;5072998;28;20039;-65
2022/12/12 09:58:00;;;;;;;21.58;14.23;;;1.70;99.90;;;;;;5072927;28;20127;-63
2022/12/12 10:00:28;;;;;;;22.58;14.43;;;1.70;99.90;;;;;;5073682;28;20445;-64
2022/12/12 10:03:24;;;;;;;21.65;13.68;;;1.70;99.90;;;;;;5072980;28;20383;-64
2022/12/12 10:06:06;;;;;;;22.55;14.02;;;1.70;99.90;;;;;;5072938;28;20056;-64
2022/12/12 10:08:50;;;;;;;24.25;14.70;;;1.70;99.90;;;;;;5073091;28;20070;-63
2022/12/12 10:14:10;;;;;;;20.38;13.27;;;1.70;99.90;;;;;;5073031;28;20048;-64
2022/12/12 10:16:37;;;;;;;20.92;14.35;;;1.70;99.90;;;;;;5072654;28;20044;-64
2022/12/12 10:19:15;;;;;;;20.80;13.10;;;1.70;99.90;;;;;;5072428;28;20486;-63
2022/12/12 10:21:41;;;;;;;22.83;13.75;;;1.70;99.90;;;;;;5072929;28;20093;-64
2022/12/12 10:24:26;;;;;;;32.72;26.73;;;1.70;99.90;;;;;;5090908;28;20429;-64
2022/12/12 10:26:53;;;;;;;23.98;15.00;;;1.70;99.90;;;;;;5072434;28;20111;-65
2022/12/12 10:29:21;;;;;;;21.52;14.88;;;1.70;99.90;;;;;;5106842;28;20083;-65
2022/12/12 10:32:15;;;;;;;21.52;13.73;;;1.60;99.90;;;;;;5072542;28;20140;-64
2022/12/12 10:35:05;;;;;;;21.27;13.15;;;1.60;99.90;;;;;;5087519;28;20391;-63
2022/12/12 10:37:50;;;;;;;19.48;13.35;;;1.60;99.90;;;;;;5065165;28;20127;-64
2022/12/12 10:40:39;;;;;;;22.50;14.15;;;1.60;99.90;;;;;;5072867;28;20036;-64
2022/12/12 10:43:10;;;;;;;22.63;13.52;;;1.60;99.90;;;;;;5072945;28;20471;-63
2022/12/12 10:45:57;;;;;;;20.13;13.45;;;1.60;99.90;;;;;;5072935;28;20036;-63
2022/12/12 10:48:22;;;;;;;24.08;14.43;;;1.60;99.90;;;;;;5072839;28;20399;-64
2022/12/12 10:50:53;;;;;;;21.27;13.07;;;1.70;99.90;;;;;;5072484;28;20094;-62
2022/12/12 10:53:19;;;;;;;20.73;13.02;;;1.70;99.90;;;;;;5055426;28;20059;-64
2022/12/12 10:55:55;;;;;;;23.10;14.05;;;1.80;99.90;;;;;;5072641;28;20478;-64
2022/12/12 10:58:26;;;;;;;22.20;13.98;;;1.90;99.90;;;;;;5106482;28;20044;-64
2022/12/12 11:01:00;;;;;;;22.25;14.50;;;1.90;99.90;;;;;;5075719;28;20526;-62
2022/12/12 11:03:30;;;;;;;22.60;13.85;;;1.90;99.90;;;;;;5076905;28;20070;-63
2022/12/12 11:05:56;;;;;;;20.85;13.70;;;2.00;99.90;;;;;;5068169;28;20053;-63
2022/12/12 11:08:25;;;;;;;23.05;14.10;;;1.90;99.90;;;;;;5074821;28;20101;-64
2022/12/12 11:11:09;;;;;;;22.85;13.90;;;2.00;99.90;;;;;;5076283;28;20032;-64
2022/12/12 11:13:45;;;;;;;21.95;13.73;;;2.00;99.90;;;;;;5076764;28;20035;-64
2022/12/12 11:16:41;;;;;;;22.08;14.27;;;2.00;99.90;;;;;;5110097;28;20074;-63
2022/12/12 11:19:17;;;;;;;20.95;13.93;;;2.00;99.90;;;;;;5074283;28;20052;-63
2022/12/12 11:21:44;;;;;;;17.92;12.63;;;2.10;99.90;;;;;;5076734;28;20398;-64
2022/12/12 11:24:22;;;;;;;20.67;13.48;;;2.00;99.90;;;;;;5059361;28;20484;-64
2022/12/12 11:26:54;;;;;;;20.80;13.43;;;2.00;99.90;;;;;;5094434;28;20036;-64
2022/12/12 11:29:38;;;;;;;24.10;16.67;;;2.00;99.90;;;;;;5075708;28;20152;-64
2022/12/12 11:32:10;;;;;;;19.67;12.93;;;2.00;99.90;;;;;;5075788;28;20043;-64
2022/12/12 11:34:41;;;;;;;24.00;13.97;;;2.00;99.90;;;;;;5075960;28;20062;-66
2022/12/12 11:37:14;;;;;;;23.42;12.85;;;2.00;99.90;;;;;;5075620;28;20079;-63
2022/12/12 11:39:44;;;;;;;21.27;13.05;;;2.00;99.90;;;;;;5076000;28;20036;-63
2022/12/12 11:42:12;;;;;;;22.40;13.48;;;2.00;99.90;;;;;;5075511;28;20042;-64
2022/12/12 11:44:39;;;;;;;20.95;12.60;;;2.00;99.90;;;;;;5075677;28;20032;-63
2022/12/12 11:47:19;;;;;;;24.17;13.38;;;2.00;99.90;;;;;;5092574;28;20082;-64
2022/12/12 11:49:56;;;;;;;21.13;13.43;;;2.00;99.90;;;;;;5075592;28;20043;-64
2022/12/12 11:52:31;;;;;;;22.45;13.85;;;2.00;99.90;;;;;;5075307;28;20075;-65
2022/12/12 11:54:58;;;;;;;20.90;13.35;;;2.00;99.90;;;;;;5075658;28;20058;-64
2022/12/12 11:57:44;;;;;;;20.63;12.93;;;2.10;99.90;;;;;;5109587;28;20540;-65
2022/12/12 12:00:14;;;;;;;20.38;12.50;;;2.10;99.90;;;;;;5075474;28;20478;-64
2022/12/12 12:03:28;;;;;;;21.08;13.52;;;2.10;99.90;;;;;;5075781;28;20482;-64
2022/12/12 12:06:46;;;;;;;18.95;12.43;;;2.10;99.90;;;;;;5066262;28;20048;-63
2022/12/12 12:09:25;;;;;;;19.35;12.93;;;2.20;99.90;;;;;;5065653;28;20049;-64
2022/12/12 12:11:56;;;;;;;21.20;13.25;;;2.20;99.90;;;;;;5034396;28;20500;-63
2022/12/12 12:14:30;;;;;;;21.88;14.65;;;2.30;99.90;;;;;;5067398;28;20400;-64
2022/12/12 12:17:14;;;;;;;23.25;15.40;;;2.30;99.90;;;;;;5050785;28;20208;-64
2022/12/12 12:20:20;;;;;;;22.77;14.07;;;2.30;99.90;;;;;;5034012;28;20431;-64
2022/12/12 12:23:10;;;;;;;19.65;13.05;;;2.80;99.90;;;;;;5053983;28;20037;-64
2022/12/12 12:25:42;;;;;;;22.92;15.10;;;3.80;99.90;;;;;;5065444;28;20042;-64
2022/12/12 12:28:28;;;;;;;22.08;14.82;;;3.50;99.90;;;;;;5078751;28;20079;-65
2022/12/12 12:31:03;;;;;;;22.40;14.02;;;3.40;99.90;;;;;;5067200;28;20063;-65
2022/12/12 12:33:35;;;;;;;22.15;14.95;;;3.30;99.90;;;;;;5069983;28;20078;-64
2022/12/12 12:36:35;;;;;;;23.20;12.85;;;3.20;99.90;;;;;;5036464;28;20406;-62
2022/12/12 12:40:02;;;;;;;20.27;13.82;;;3.00;99.90;;;;;;5082765;28;20056;-63
2022/12/12 12:42:46;;;;;;;21.40;14.35;;;2.90;99.90;;;;;;4917273;29;20059;-64
2022/12/12 12:45:35;;;;;;;21.40;13.68;;;2.90;99.90;;;;;;4942540;29;20081;-64
2022/12/12 12:48:10;;;;;;;21.23;13.40;;;2.90;99.90;;;;;;4931510;29;20423;-64
2022/12/12 12:51:12;;;;;;;22.45;14.48;;;3.00;99.90;;;;;;4987549;28;20383;-64
2022/12/12 12:53:56;;;;;;;21.63;14.32;;;3.00;99.90;;;;;;4968904;28;20110;-63
2022/12/12 12:56:25;;;;;;;24.60;14.50;;;2.90;99.90;;;;;;4986855;28;20041;-64
2022/12/12 12:58:54;;;;;;;22.73;14.38;;;2.80;99.90;;;;;;4955239;28;20106;-64
2022/12/12 13:01:26;;;;;;;20.92;13.90;;;2.90;99.90;;;;;;4971353;28;20051;-64
2022/12/12 13:04:10;;;;;;;23.48;13.98;;;4.10;99.90;;;;;;4955257;28;20035;-64
2022/12/12 13:06:43;;;;;;;22.15;14.30;;;4.10;99.90;;;;;;4998987;28;20059;-64
2022/12/12 13:09:22;;;;;;;21.08;13.55;;;4.70;99.90;;;;;;4997290;28;20046;-64
2022/12/12 13:11:52;;;;;;;20.98;14.00;;;4.50;99.90;;;;;;4986528;28;20509;-64
2022/12/12 13:14:20;;;;;;;20.85;14.38;;;4.30;99.90;;;;;;5019520;28;20062;-64
2022/12/12 13:16:47;;;;;;;20.63;13.95;;;4.10;99.90;;;;;;4999088;28;20042;-64
2022/12/12 13:19:31;;;;;;;23.33;14.55;;;3.80;99.90;;;;;;5069747;28;20109;-63
2022/12/12 13:22:18;;;;;;;22.88;14.05;;;3.50;99.90;;;;;;5101061;28;20123;-63
2022/12/12 13:25:09;;;;;;;22.77;14.70;;;3.20;99.90;;;;;;5101229;28;20040;-64